createdAt,value
2022-11-16T00:02:13.894Z,2.37
2022-11-16T00:04:42.340Z,2.27
2022-11-16T00:07:10.739Z,0.93
2022-11-16T00:09:39.082Z,1.63
2022-11-16T00:12:09.652Z,3.27
2022-11-16T00:14:37.914Z,1.50
2022-11-16T00:17:06.482Z,2.30
2022-11-16T00:19:35.781Z,1.60
2022-11-16T00:22:03.866Z,1.10
2022-11-16T00:24:31.917Z,1.57
2022-11-16T00:26:59.863Z,1.83
2022-11-16T00:29:28.761Z,2.33
2022-11-16T00:31:56.875Z,0.77
2022-11-16T00:34:25.585Z,1.03
2022-11-16T00:36:54.915Z,1.30
2022-11-16T00:39:23.036Z,2.07
2022-11-16T00:41:51.429Z,2.20
2022-11-16T00:44:19.657Z,2.63
2022-11-16T00:46:47.629Z,1.43
2022-11-16T00:49:16.178Z,1.97
2022-11-16T00:51:44.227Z,1.33
2022-11-16T00:54:13.620Z,1.00
2022-11-16T00:56:41.891Z,1.87
2022-11-16T00:59:09.905Z,1.10
2022-11-16T01:01:37.974Z,1.20
2022-11-16T01:04:06.171Z,1.70
2022-11-16T01:06:34.121Z,1.50
2022-11-16T01:09:02.159Z,1.80
2022-11-16T01:11:49.097Z,0.90
2022-11-16T01:14:17.331Z,2.83
2022-11-16T01:16:45.325Z,0.97
2022-11-16T01:19:13.465Z,1.60
2022-11-16T01:21:41.442Z,1.37
2022-11-16T01:24:09.475Z,1.30
2022-11-16T01:26:38.782Z,0.67
2022-11-16T01:29:06.924Z,1.70
2022-11-16T01:31:34.877Z,0.80
2022-11-16T01:34:02.911Z,1.30
2022-11-16T01:36:31.157Z,1.67
2022-11-16T01:38:59.203Z,1.83
2022-11-16T01:41:27.665Z,0.83
2022-11-16T01:43:59.358Z,1.23
2022-11-16T01:46:28.260Z,1.90
2022-11-16T01:49:01.530Z,1.83
2022-11-16T01:51:29.932Z,0.63
2022-11-16T01:53:59.728Z,1.30
2022-11-16T01:56:27.889Z,1.37
2022-11-16T01:58:57.375Z,1.33
2022-11-16T02:01:25.535Z,1.17
2022-11-16T02:03:53.540Z,1.30
2022-11-16T02:06:39.168Z,2.07
2022-11-16T02:09:52.175Z,1.03
2022-11-16T02:12:35.156Z,1.43
2022-11-16T02:15:17.492Z,1.27
2022-11-16T02:17:55.735Z,2.83
2022-11-16T02:20:48.946Z,2.10
2022-11-16T02:23:51.692Z,2.03
2022-11-16T02:26:35.450Z,1.43
2022-11-16T02:29:23.360Z,0.57
2022-11-16T02:31:57.137Z,1.03
2022-11-16T02:34:28.045Z,1.80
2022-11-16T02:36:57.850Z,1.80
2022-11-16T02:39:28.492Z,2.13
2022-11-16T02:41:58.147Z,2.07
2022-11-16T02:44:32.028Z,1.53
2022-11-16T02:47:04.996Z,1.83
2022-11-16T02:49:37.144Z,0.50
2022-11-16T02:52:05.946Z,1.97
2022-11-16T02:54:33.908Z,2.30
2022-11-16T02:57:29.995Z,1.27
2022-11-16T03:00:01.586Z,1.83
2022-11-16T03:02:35.012Z,2.33
2022-11-16T03:05:08.036Z,1.90
2022-11-16T03:07:44.312Z,1.53
2022-11-16T03:10:33.218Z,1.57
2022-11-16T03:13:02.565Z,2.57
2022-11-16T03:15:32.645Z,3.47
2022-11-16T03:18:01.899Z,2.63
2022-11-16T03:20:33.285Z,2.30
2022-11-16T03:23:04.390Z,2.33
2022-11-16T03:25:37.843Z,1.80
2022-11-16T03:28:12.691Z,3.53
2022-11-16T03:30:45.028Z,2.07
2022-11-16T03:33:19.446Z,3.30
2022-11-16T03:35:53.957Z,2.40
2022-11-16T03:38:23.358Z,2.43
2022-11-16T03:40:52.643Z,2.00
2022-11-16T03:43:21.749Z,2.00
2022-11-16T03:45:51.388Z,2.73
2022-11-16T03:48:19.388Z,3.07
2022-11-16T03:50:47.586Z,1.87
2022-11-16T03:53:15.691Z,3.63
2022-11-16T03:55:49.602Z,3.10
2022-11-16T03:58:18.656Z,3.70
2022-11-16T04:00:46.900Z,2.10
2022-11-16T04:03:16.322Z,2.67
2022-11-16T04:06:02.010Z,2.00
2022-11-16T04:08:47.289Z,1.67
2022-11-16T04:11:33.494Z,2.73
2022-11-16T04:14:19.215Z,2.97
2022-11-16T04:17:04.790Z,2.50
2022-11-16T04:19:56.757Z,3.30
2022-11-16T04:22:50.482Z,2.50
2022-11-16T04:25:22.499Z,3.97
2022-11-16T04:28:08.551Z,2.53
2022-11-16T04:30:51.027Z,1.30
2022-11-16T04:33:36.784Z,1.80
2022-11-16T04:36:24.246Z,2.33
2022-11-16T04:38:52.236Z,2.90
2022-11-16T04:41:37.883Z,2.47
2022-11-16T04:44:05.954Z,1.30
2022-11-16T04:47:06.343Z,2.53
2022-11-16T04:49:34.678Z,3.03
2022-11-16T04:52:04.007Z,3.17
2022-11-16T04:54:31.980Z,1.33
2022-11-16T04:56:59.905Z,2.10
2022-11-16T04:59:27.970Z,0.83
2022-11-16T05:02:13.140Z,0.60
2022-11-16T05:04:42.796Z,1.67
2022-11-16T05:07:14.754Z,2.20
2022-11-16T05:09:44.231Z,1.07
2022-11-16T05:12:14.860Z,2.30
2022-11-16T05:14:43.442Z,2.43
2022-11-16T05:17:11.717Z,3.13
2022-11-16T05:19:57.349Z,1.80
2022-11-16T05:22:26.805Z,4.47
2022-11-16T05:24:53.940Z,3.40
2022-11-16T05:27:24.176Z,3.53
2022-11-16T05:29:52.324Z,2.43
2022-11-16T05:32:21.191Z,3.00
2022-11-16T05:34:49.749Z,2.07
2022-11-16T05:37:19.152Z,2.70
2022-11-16T05:39:48.613Z,2.93
2022-11-16T05:42:17.331Z,1.80
2022-11-16T05:44:45.395Z,2.47
2022-11-16T05:47:13.389Z,2.77
2022-11-16T05:49:41.401Z,1.97
2022-11-16T05:52:09.345Z,2.07
2022-11-16T05:54:37.328Z,1.97
2022-11-16T05:57:06.692Z,1.77
2022-11-16T05:59:34.701Z,1.50
2022-11-16T06:02:04.000Z,2.87
2022-11-16T06:04:32.080Z,1.23
2022-11-16T06:07:00.087Z,1.30
2022-11-16T06:09:28.151Z,1.43
2022-11-16T06:11:56.121Z,2.10
2022-11-16T06:14:25.578Z,2.33
2022-11-16T06:16:53.519Z,1.07
2022-11-16T06:19:21.711Z,1.77
2022-11-16T06:21:49.669Z,2.37
2022-11-16T06:24:17.694Z,1.63
2022-11-16T06:26:47.150Z,2.47
2022-11-16T06:29:16.368Z,1.33
2022-11-16T06:31:45.785Z,2.80
2022-11-16T06:34:13.939Z,2.97
2022-11-16T06:36:41.989Z,2.57
2022-11-16T06:39:12.935Z,2.43
2022-11-16T06:41:41.640Z,3.77
2022-11-16T06:44:09.948Z,3.20
2022-11-16T06:46:37.918Z,2.03
2022-11-16T06:49:07.219Z,3.87
2022-11-16T06:51:35.258Z,2.03
2022-11-16T06:54:03.204Z,4.10
2022-11-16T06:56:31.287Z,2.73
2022-11-16T06:58:59.275Z,2.03
2022-11-16T07:01:27.559Z,1.87
2022-11-16T07:03:55.645Z,1.73
2022-11-16T07:06:24.941Z,2.47
2022-11-16T07:08:53.008Z,3.27
2022-11-16T07:11:21.258Z,1.30
2022-11-16T07:13:49.508Z,1.70
2022-11-16T07:16:17.538Z,2.20
2022-11-16T07:18:45.548Z,1.10
2022-11-16T07:21:15.904Z,2.43
2022-11-16T07:23:45.436Z,2.40
2022-11-16T07:26:13.503Z,2.43
2022-11-16T07:28:47.758Z,1.87
2022-11-16T07:31:17.280Z,1.87
2022-11-16T07:33:45.253Z,1.60
2022-11-16T07:36:14.956Z,1.17
2022-11-16T07:38:43.180Z,2.17
2022-11-16T07:41:14.084Z,1.67
2022-11-16T07:43:42.210Z,1.87
2022-11-16T07:46:45.359Z,3.00
2022-11-16T07:49:01.603Z,3.40
2022-11-16T07:51:29.757Z,2.40
2022-11-16T07:53:57.725Z,2.90
2022-11-16T07:56:27.215Z,3.20
2022-11-16T07:58:55.258Z,2.93
2022-11-16T08:01:23.277Z,3.30
2022-11-16T08:03:54.794Z,3.17
2022-11-16T08:06:25.581Z,3.33
2022-11-16T08:08:58.028Z,3.33
2022-11-16T08:11:32.383Z,3.53
2022-11-16T08:14:00.302Z,2.47
2022-11-16T08:16:28.317Z,1.80
2022-11-16T08:18:56.341Z,2.40
2022-11-16T08:21:24.298Z,1.97
2022-11-16T08:23:57.914Z,1.40
2022-11-16T08:26:28.236Z,2.50
2022-11-16T08:28:57.368Z,4.23
2022-11-16T08:31:27.020Z,3.50
2022-11-16T08:33:55.602Z,2.70
2022-11-16T08:36:23.674Z,1.73
2022-11-16T08:38:53.206Z,1.97
2022-11-16T08:41:21.848Z,1.97
2022-11-16T08:43:53.417Z,2.03
2022-11-16T08:46:21.723Z,2.17
2022-11-16T08:48:49.730Z,2.90
2022-11-16T08:51:20.389Z,2.47
2022-11-16T08:53:49.559Z,2.40
2022-11-16T08:56:19.001Z,3.33
2022-11-16T08:58:49.409Z,2.80
2022-11-16T09:01:23.298Z,3.60
2022-11-16T09:03:51.349Z,2.40
2022-11-16T09:06:19.422Z,2.50
2022-11-16T09:08:48.108Z,2.90
2022-11-16T09:11:17.978Z,2.00
2022-11-16T09:13:46.686Z,2.40
2022-11-16T09:16:16.738Z,2.83
2022-11-16T09:18:47.187Z,3.80
2022-11-16T09:21:19.077Z,3.03
2022-11-16T09:23:47.816Z,3.13
2022-11-16T09:26:16.657Z,3.47
2022-11-16T09:28:44.614Z,3.40
2022-11-16T09:31:12.654Z,3.73
2022-11-16T09:33:40.810Z,2.93
2022-11-16T09:36:10.987Z,1.80
2022-11-16T09:39:13.941Z,3.10
2022-11-16T09:41:58.847Z,2.63
2022-11-16T09:44:51.083Z,3.83
2022-11-16T09:47:21.857Z,2.13
2022-11-16T09:49:58.192Z,3.23
2022-11-16T09:52:36.012Z,3.73
2022-11-16T09:55:21.386Z,3.00
2022-11-16T09:57:50.254Z,3.83
2022-11-16T10:00:23.645Z,2.60
2022-11-16T10:03:01.100Z,3.53
2022-11-16T10:05:34.022Z,3.43
2022-11-16T10:08:10.927Z,3.57
2022-11-16T10:10:41.144Z,2.57
2022-11-16T10:13:24.725Z,2.60
2022-11-16T10:16:04.976Z,3.47
2022-11-16T10:18:47.540Z,3.63
2022-11-16T10:21:37.332Z,3.83
2022-11-16T10:24:29.588Z,3.50
2022-11-16T10:27:22.173Z,4.80
2022-11-16T10:30:03.416Z,3.57
2022-11-16T10:32:33.547Z,3.33
2022-11-16T10:35:09.186Z,2.97
2022-11-16T10:37:40.591Z,3.00
2022-11-16T10:40:20.183Z,3.93
2022-11-16T10:42:54.913Z,4.83
2022-11-16T10:45:29.639Z,4.00
2022-11-16T10:48:02.488Z,4.17
2022-11-16T10:50:38.567Z,4.33
2022-11-16T10:53:06.620Z,3.07
2022-11-16T10:55:36.048Z,3.47
2022-11-16T10:58:06.188Z,4.63
2022-11-16T11:00:44.171Z,5.77
2022-11-16T11:03:12.203Z,5.47
2022-11-16T11:05:50.452Z,3.20
2022-11-16T11:08:27.748Z,3.63
2022-11-16T11:11:22.634Z,2.50
2022-11-16T11:14:04.992Z,2.10
2022-11-16T11:16:32.987Z,3.00
2022-11-16T11:19:19.524Z,1.43
2022-11-16T11:21:48.777Z,1.97
2022-11-16T11:24:43.510Z,1.90
2022-11-16T11:27:08.269Z,2.43
2022-11-16T11:29:37.973Z,3.10
2022-11-16T11:32:07.705Z,2.83
2022-11-16T11:34:41.682Z,2.20
2022-11-16T11:37:16.295Z,1.63
2022-11-16T11:39:44.494Z,1.80
2022-11-16T11:42:24.305Z,2.23
2022-11-16T11:44:57.350Z,2.73
2022-11-16T11:47:56.775Z,4.27
2022-11-16T11:50:26.284Z,4.07
2022-11-16T11:53:03.805Z,2.43
2022-11-16T11:55:31.925Z,5.07
2022-11-16T11:58:03.020Z,3.67
2022-11-16T12:00:42.423Z,4.37
2022-11-16T12:03:28.042Z,3.70
2022-11-16T12:06:11.053Z,2.20
2022-11-16T12:09:02.416Z,2.87
2022-11-16T12:11:45.585Z,2.43
2022-11-16T12:14:30.284Z,2.30
2022-11-16T12:17:05.731Z,2.90
2022-11-16T12:20:15.642Z,2.97
2022-11-16T12:23:03.774Z,1.80
2022-11-16T12:25:39.403Z,2.60
2022-11-16T12:28:23.874Z,1.60
2022-11-16T12:31:07.047Z,1.80
2022-11-16T12:33:43.368Z,3.07
2022-11-16T12:36:26.312Z,1.87
2022-11-16T12:39:06.824Z,2.23
2022-11-16T12:41:59.488Z,1.60
2022-11-16T12:44:43.862Z,2.77
2022-11-16T12:47:23.596Z,2.30
2022-11-16T12:50:17.217Z,3.10
2022-11-16T12:52:58.478Z,2.20
2022-11-16T12:55:34.886Z,2.43
2022-11-16T12:58:15.669Z,1.87
2022-11-16T13:01:02.749Z,2.20
2022-11-16T13:03:39.506Z,1.77
2022-11-16T13:06:10.626Z,1.90
2022-11-16T13:08:48.140Z,2.87
2022-11-16T13:11:21.991Z,2.47
2022-11-16T13:13:53.972Z,1.27
2022-11-16T13:16:23.855Z,3.63
2022-11-16T13:18:54.950Z,1.67
2022-11-16T13:21:32.557Z,3.23
2022-11-16T13:24:13.913Z,2.27
2022-11-16T13:26:49.315Z,2.73
2022-11-16T13:29:27.273Z,2.97
2022-11-16T13:32:01.990Z,2.33
2022-11-16T13:34:35.165Z,2.27
2022-11-16T13:37:03.118Z,3.50
2022-11-16T13:40:11.644Z,3.13
2022-11-16T13:42:45.673Z,2.03
2022-11-16T13:45:19.629Z,1.60
2022-11-16T13:47:52.329Z,2.33
2022-11-16T13:50:30.863Z,1.70
2022-11-16T13:55:58.835Z,1.10
2022-11-16T13:58:29.608Z,1.57
2022-11-16T14:01:01.680Z,2.57
2022-11-16T14:03:38.232Z,2.27
2022-11-16T14:06:23.814Z,1.60
2022-11-16T14:08:53.047Z,2.20
2022-11-16T14:11:33.023Z,2.67
2022-11-16T14:14:02.372Z,3.20
2022-11-16T14:16:45.958Z,2.77
2022-11-16T14:19:54.509Z,2.47
2022-11-16T14:22:42.925Z,3.30
2022-11-16T14:25:20.005Z,3.23
2022-11-16T14:27:55.367Z,2.37
2022-11-16T14:30:25.798Z,1.87
2022-11-16T14:32:56.596Z,1.80
2022-11-16T14:35:29.940Z,2.57
2022-11-16T14:38:02.296Z,2.53
2022-11-16T14:40:31.987Z,2.63
2022-11-16T14:43:21.504Z,2.07
2022-11-16T14:45:56.478Z,2.67
2022-11-16T14:48:26.917Z,1.97
2022-11-16T14:51:07.097Z,3.23
2022-11-16T14:53:40.363Z,1.80
2022-11-16T14:56:11.202Z,3.37
2022-11-16T14:58:39.673Z,2.77
2022-11-16T15:01:15.116Z,2.67
2022-11-16T15:03:56.541Z,2.70
2022-11-16T15:06:27.034Z,2.03
2022-11-16T15:09:00.413Z,2.70
2022-11-16T15:11:50.773Z,1.53
2022-11-16T15:14:21.380Z,3.03
2022-11-16T15:16:51.982Z,3.10
2022-11-16T15:19:20.374Z,1.47
2022-11-16T15:21:53.430Z,2.03
2022-11-16T15:24:31.027Z,2.20
2022-11-16T15:27:13.447Z,2.77
2022-11-16T15:29:41.533Z,1.92
2022-11-16T15:32:16.529Z,3.83
2022-11-16T15:34:54.160Z,1.30
2022-11-16T15:37:32.686Z,1.70
2022-11-16T15:40:03.553Z,1.43
2022-11-16T15:42:31.657Z,2.60
2022-11-16T15:45:03.721Z,1.87
2022-11-16T15:47:31.829Z,1.80
2022-11-16T15:49:59.851Z,1.13
2022-11-16T15:52:43.897Z,2.10
2022-11-16T15:55:38.710Z,1.77
2022-11-16T15:58:14.388Z,1.83
2022-11-16T16:00:42.967Z,2.13
2022-11-16T16:03:21.589Z,2.67
2022-11-16T16:05:49.954Z,2.10
2022-11-16T16:08:39.546Z,2.03
2022-11-16T16:11:11.436Z,2.17
2022-11-16T16:13:41.726Z,1.90
2022-11-16T16:16:31.862Z,2.53
2022-11-16T16:19:08.152Z,1.87
2022-11-16T16:21:44.026Z,1.23
2022-11-16T16:24:36.784Z,2.00
2022-11-16T16:27:20.356Z,0.73
2022-11-16T16:29:51.722Z,1.63
2022-11-16T16:32:25.860Z,1.87
2022-11-16T16:34:55.133Z,1.27
2022-11-16T16:37:23.556Z,1.93
2022-11-16T16:39:51.613Z,2.73
2022-11-16T16:42:21.159Z,1.03
2022-11-16T16:44:54.439Z,0.80
2022-11-16T16:47:22.532Z,1.87
2022-11-16T16:49:50.924Z,2.30
2022-11-16T16:52:22.091Z,1.77
2022-11-16T16:54:50.073Z,1.57
2022-11-16T16:57:20.996Z,2.40
2022-11-16T16:59:51.368Z,2.40
2022-11-16T17:02:20.351Z,2.13
2022-11-16T17:04:48.946Z,3.50
2022-11-16T17:07:17.467Z,2.10
2022-11-16T17:09:45.492Z,2.87
2022-11-16T17:12:13.562Z,3.17
2022-11-16T17:14:42.905Z,2.13
2022-11-16T17:17:10.830Z,1.97
2022-11-16T17:19:38.896Z,1.67
2022-11-16T17:22:06.844Z,1.60
2022-11-16T17:24:35.762Z,1.33
2022-11-16T17:27:03.961Z,2.17
2022-11-16T17:29:31.995Z,1.67
2022-11-16T17:32:01.478Z,1.60
2022-11-16T17:34:29.470Z,2.00
2022-11-16T17:36:57.450Z,2.30
2022-11-16T17:39:25.844Z,2.33
2022-11-16T17:41:53.892Z,2.00
2022-11-16T17:44:22.459Z,1.20
2022-11-16T17:46:50.535Z,1.63
2022-11-16T17:49:19.923Z,1.77
2022-11-16T17:51:48.059Z,1.50
2022-11-16T17:54:16.179Z,1.70
2022-11-16T17:56:44.211Z,1.83
2022-11-16T17:59:12.299Z,0.90
2022-11-16T18:01:40.421Z,2.17
2022-11-16T18:04:08.588Z,1.43
2022-11-16T18:06:38.165Z,2.07
2022-11-16T18:09:06.319Z,1.20
2022-11-16T18:11:34.239Z,1.70
2022-11-16T18:14:04.662Z,2.30
2022-11-16T18:16:36.664Z,1.33
2022-11-16T18:19:06.564Z,1.53
2022-11-16T18:21:41.909Z,1.80
2022-11-16T18:24:10.686Z,2.40
2022-11-16T18:26:40.247Z,1.67
2022-11-16T18:29:12.313Z,1.90
2022-11-16T18:31:40.359Z,2.80
2022-11-16T18:34:08.369Z,3.80
2022-11-16T18:36:36.356Z,3.23
2022-11-16T18:39:06.805Z,3.83
2022-11-16T18:41:35.016Z,2.87
2022-11-16T18:44:03.600Z,2.67
2022-11-16T18:46:32.926Z,2.43
2022-11-16T18:49:01.453Z,3.27
2022-11-16T18:51:29.981Z,1.73
2022-11-16T18:53:58.069Z,4.13
2022-11-16T18:56:27.781Z,2.17
2022-11-16T18:58:55.752Z,0.70
2022-11-16T19:01:25.763Z,2.33
2022-11-16T19:03:54.514Z,1.23
2022-11-16T19:06:23.521Z,1.70
2022-11-16T19:08:59.402Z,2.07
2022-11-16T19:11:29.645Z,0.97
2022-11-16T19:14:00.639Z,0.80
2022-11-16T19:16:28.772Z,1.70
2022-11-16T19:18:57.046Z,1.00
2022-11-16T19:21:25.703Z,0.97
2022-11-16T19:23:55.699Z,1.13
2022-11-16T19:26:25.664Z,1.37
2022-11-16T19:28:55.713Z,1.33
2022-11-16T19:31:25.833Z,1.50
2022-11-16T19:33:58.355Z,1.70
2022-11-16T19:36:27.109Z,1.90
2022-11-16T19:38:55.802Z,0.67
2022-11-16T19:41:24.575Z,1.50
2022-11-16T19:43:57.302Z,1.23
2022-11-16T19:46:25.849Z,0.60
2022-11-16T19:48:54.180Z,0.60
2022-11-16T19:51:23.778Z,0.90
2022-11-16T19:53:53.644Z,1.93
2022-11-16T19:56:23.611Z,1.73
2022-11-16T19:58:52.037Z,1.40
2022-11-16T20:01:23.554Z,1.33
2022-11-16T20:03:51.668Z,0.80
2022-11-16T20:06:21.951Z,1.80
2022-11-16T20:08:51.745Z,0.80
2022-11-16T20:11:21.675Z,0.70
2022-11-16T20:13:50.200Z,1.10
2022-11-16T20:16:21.299Z,1.13
2022-11-16T20:18:51.642Z,2.03
2022-11-16T20:21:23.078Z,1.77
2022-11-16T20:23:51.696Z,1.10
2022-11-16T20:26:21.460Z,1.17
2022-11-16T20:28:52.286Z,0.83
2022-11-16T20:31:22.118Z,2.40
2022-11-16T20:33:56.512Z,1.50
2022-11-16T20:36:25.964Z,1.53
2022-11-16T20:38:54.589Z,2.10
2022-11-16T20:41:24.644Z,1.50
2022-11-16T20:43:54.671Z,1.40
2022-11-16T20:46:24.965Z,0.77
2022-11-16T20:48:54.631Z,0.90
2022-11-16T20:51:22.650Z,1.60
2022-11-16T20:53:52.008Z,1.87
2022-11-16T20:56:21.443Z,0.83
2022-11-16T20:58:49.585Z,3.07
2022-11-16T21:01:20.905Z,0.93
2022-11-16T21:03:48.952Z,1.47
2022-11-16T21:06:18.275Z,1.47
2022-11-16T21:08:46.317Z,1.10
2022-11-16T21:11:18.372Z,1.00
2022-11-16T21:14:04.941Z,1.30
2022-11-16T21:16:33.720Z,1.03
2022-11-16T21:19:02.455Z,0.77
2022-11-16T21:21:32.087Z,0.93
2022-11-16T21:24:00.648Z,0.77
2022-11-16T21:26:29.921Z,1.53
2022-11-16T21:28:59.206Z,0.90
2022-11-16T21:31:29.982Z,0.50
2022-11-16T21:34:00.521Z,0.57
2022-11-16T21:36:29.891Z,0.83
2022-11-16T21:38:59.977Z,0.73
2022-11-16T21:41:29.169Z,2.03
2022-11-16T21:43:57.675Z,2.13
2022-11-16T21:46:27.683Z,2.03
2022-11-16T21:48:57.010Z,1.70
2022-11-16T21:51:27.227Z,1.80
2022-11-16T21:53:56.102Z,2.47
2022-11-16T21:56:26.755Z,3.10
2022-11-16T21:58:55.483Z,2.00
2022-11-16T22:01:24.899Z,2.70
2022-11-16T22:04:06.981Z,2.77
2022-11-16T22:06:51.500Z,0.87
2022-11-16T22:09:19.568Z,0.70
2022-11-16T22:11:48.943Z,1.00
2022-11-16T22:14:17.068Z,0.70
2022-11-16T22:16:45.004Z,1.00
2022-11-16T22:19:13.093Z,1.03
2022-11-16T22:21:41.137Z,0.57
2022-11-16T22:24:09.736Z,2.33
2022-11-16T22:26:39.913Z,1.83
2022-11-16T22:29:09.596Z,1.03
2022-11-16T22:31:37.561Z,1.27
2022-11-16T22:34:05.968Z,1.87
2022-11-16T22:36:33.934Z,0.80
2022-11-16T22:39:02.555Z,0.70
2022-11-16T22:41:32.806Z,0.57
2022-11-16T22:44:00.756Z,2.13
2022-11-16T22:46:30.125Z,0.80
2022-11-16T22:48:58.148Z,1.43
2022-11-16T22:51:27.534Z,0.70
2022-11-16T22:53:56.024Z,0.53
2022-11-16T22:56:24.412Z,1.57
2022-11-16T22:58:53.049Z,1.00
2022-11-16T23:01:21.763Z,0.80
2022-11-16T23:03:51.634Z,0.30
2022-11-16T23:06:19.803Z,1.03
2022-11-16T23:08:48.243Z,0.47
2022-11-16T23:11:35.056Z,0.63
2022-11-16T23:14:22.320Z,1.53
2022-11-16T23:16:50.432Z,1.23
2022-11-16T23:19:38.712Z,1.53
2022-11-16T23:22:24.410Z,0.77
2022-11-16T23:25:09.961Z,0.63
2022-11-16T23:27:42.021Z,0.83
2022-11-16T23:30:13.032Z,1.20
2022-11-16T23:32:41.761Z,0.57
2022-11-16T23:35:11.920Z,1.00
2022-11-16T23:37:52.045Z,0.67
2022-11-16T23:40:20.359Z,0.33
2022-11-16T23:43:06.301Z,0.30
2022-11-16T23:45:34.666Z,0.40
2022-11-16T23:48:02.773Z,0.30
2022-11-16T23:50:32.081Z,1.50
2022-11-16T23:53:00.633Z,0.60
2022-11-16T23:55:29.772Z,1.07
2022-11-16T23:57:57.904Z,0.70
